Date,TemperatureHighF,TemperatureAvgF,TemperatureLowF,DewpointHighF,DewpointAvgF,DewpointLowF,HumidityHigh,HumidityAvg,HumidityLow,PressureMaxIn,PressureMinIn,WindSpeedMaxMPH,WindSpeedAvgMPH,GustSpeedMaxMPH,PrecipitationSumIn
2013-1-1,16,7,-3,5,0,-7,92,73,58,30.39,30.22,7,1,9,0.00
2013-1-2,29,20,10,26,15,4,91,82,72,30.22,30.08,10,3,18,0.00
2013-1-3,29,19,11,26,14,7,90,82,73,30.41,30.20,15,3,19,0.00
2013-1-4,36,25,12,24,19,9,90,78,62,30.34,30.19,14,4,18,0.00
2013-1-5,39,29,22,33,24,18,91,82,75,30.19,29.94,19,4,24,0.01
2013-1-6,28,21,12,20,16,8,85,79,70,30.34,30.11,15,3,29,0.00
2013-1-7,44,34,24,31,25,19,85,71,58,30.23,30.01,17,4,24,0.00
2013-1-8,47,36,29,34,30,24,85,77,61,30.08,29.84,13,3,24,0.00
2013-1-9,43,36,31,34,30,27,92,79,68,30.45,30.08,13,2,14,0.00
2013-1-10,39,35,32,35,30,26,96,82,67,30.40,29.73,15,3,19,0.04
2013-1-11,54,44,35,46,41,34,98,90,71,29.73,29.44,28,5,30,0.01
2013-1-12,52,23,13,43,16,5,89,74,67,30.12,29.51,19,6,28,0.00
2013-1-13,19,12,7,11,6,2,80,74,68,30.38,30.07,13,4,19,0.00
2013-1-14,30,18,8,13,9,4,85,68,48,30.53,30.38,9,1,14,0.00
2013-1-15,34,25,17,16,13,10,76,60,45,30.42,30.08,11,3,15,0.00
2013-1-16,48,34,23,36,25,12,89,71,61,30.22,29.90,16,5,22,0.00
2013-1-17,35,25,15,25,17,8,88,72,48,30.48,30.22,10,2,15,0.00
2013-1-18,55,41,27,36,30,20,82,66,46,30.36,29.86,30,6,33,0.00
2013-1-19,50,40,17,35,29,6,79,66,47,30.28,29.79,22,7,35,0.00
2013-1-20,17,11,5,9,5,0,84,76,63,30.43,30.27,15,5,22,0.00
2013-1-21,7,3,-4,2,-4,-11,82,71,65,30.52,30.40,22,6,26,0.00
2013-1-22,16,9,1,7,1,-5,83,68,60,30.51,30.35,7,1,13,0.00
2013-1-23,27,16,4,18,8,-3,78,70,62,30.59,30.22,19,7,25,0.00
2013-1-24,20,10,2,7,-1,-7,71,59,48,30.67,30.27,14,5,19,0.00
2013-1-25,36,24,12,25,14,3,80,67,56,30.34,30.13,19,5,23,0.00
2013-1-26,35,21,8,17,9,2,78,61,42,30.39,30.18,14,4,20,0.00
2013-1-27,37,33,30,36,29,17,96,86,56,30.18,29.75,14,4,18,0.18
2013-1-28,49,37,33,48,36,32,98,97,96,29.92,29.57,12,2,15,0.01
2013-1-29,58,38,31,57,37,29,99,95,91,29.68,29.50,16,5,23,0.03
2013-1-30,31,22,14,29,19,10,95,87,73,29.89,29.50,29,13,37,0.00
2013-1-31,14,6,-1,10,0,-7,83,74,68,30.44,29.89,24,10,33,0.00
2013-2-1,25,7,-5,18,-1,-10,80,71,60,30.48,30.10,14,4,19,0.00
2013-2-2,26,20,14,24,15,8,92,79,64,30.24,30.01,15,5,21,0.00
2013-2-3,34,26,16,28,18,12,93,71,49,30.22,29.80,23,6,31,0.02
2013-2-4,31,23,19,26,19,15,87,82,71,30.05,29.77,17,4,19,0.00
2013-2-5,43,31,21,35,27,18,93,83,71,30.13,29.82,17,4,25,0.00
2013-2-6,43,35,26,35,30,23,93,82,71,30.14,29.92,13,2,19,0.00
2013-2-7,41,33,27,37,30,24,94,90,75,30.21,29.88,20,6,23,0.22
2013-2-8,28,26,24,24,23,21,90,87,84,30.39,30.22,15,4,17,0.00
2013-2-9,37,31,27,32,28,24,95,88,81,30.28,29.84,16,6,21,0.08
2013-2-10,50,37,32,45,34,25,97,88,67,29.84,29.26,25,9,36,0.11
2013-2-11,32,29,27,25,23,21,83,77,74,30.15,29.59,27,8,37,0.00
2013-2-12,44,34,23,30,25,20,95,72,52,30.16,29.88,12,3,18,0.00
2013-2-13,51,38,26,33,28,23,89,72,46,29.88,29.68,11,2,18,0.00
2013-2-14,41,34,23,32,28,15,86,77,62,30.20,29.71,17,7,29,0.00
2013-2-15,28,22,16,16,12,8,82,68,55,30.36,30.20,16,6,21,0.00
2013-2-16,36,24,11,20,15,8,89,70,47,30.34,30.13,8,1,13,0.00
2013-2-17,46,33,20,28,23,16,88,68,48,30.13,29.65,18,6,26,0.00
2013-2-18,43,31,16,35,24,9,92,75,65,29.95,29.56,32,9,36,0.00
2013-2-19,22,15,6,9,5,0,79,65,50,30.43,29.95,27,11,33,0.00
2013-2-20,23,13,0,12,3,-5,79,65,49,30.51,30.35,10,3,13,0.00
2013-2-21,25,21,17,22,16,11,93,80,65,30.38,29.87,23,7,24,0.00
2013-2-22,28,24,22,25,21,17,93,88,82,30.02,29.80,14,3,17,0.06
2013-2-23,33,24,12,22,17,9,90,76,61,30.00,29.93,10,1,14,0.01
2013-2-24,40,30,18,30,24,15,96,76,61,30.09,29.96,4,0,7,0.00
2013-2-25,39,33,28,31,28,25,89,81,63,30.10,29.92,9,2,13,0.00
2013-2-26,32,30,28,30,28,26,95,92,84,29.91,29.72,19,9,23,0.01
2013-2-27,32,28,24,28,25,20,95,89,77,30.01,29.80,19,10,25,0.00
2013-2-28,32,27,23,25,22,19,88,84,74,30.20,30.01,18,8,21,0.01
2013-3-1,28,26,24,23,21,18,90,83,74,30.35,30.18,13,5,14,0.00
2013-3-2,31,25,15,23,19,12,88,77,66,30.36,30.21,12,2,13,0.00
2013-3-3,34,30,22,24,22,18,84,74,61,30.20,29.91,17,3,20,0.00
2013-3-4,36,32,27,30,28,24,94,87,78,29.97,29.80,17,4,22,0.02
2013-3-5,32,29,26,30,24,22,95,84,72,30.31,29.95,20,7,29,0.07
2013-3-6,29,25,20,23,20,16,92,81,74,30.45,30.31,14,3,19,0.01
2013-3-7,34,25,16,26,21,14,92,83,67,30.41,30.27,13,3,15,0.00
2013-3-8,44,34,25,35,29,22,92,81,68,30.31,30.04,14,4,20,0.08
2013-3-9,41,38,36,40,37,34,97,94,87,30.03,29.61,16,5,20,0.56
2013-3-10,39,34,31,38,33,30,97,96,94,29.82,29.63,20,8,24,0.32
2013-3-11,31,27,24,30,24,20,96,90,83,29.96,29.74,17,7,22,0.03
2013-3-12,34,26,20,29,21,16,92,83,73,30.28,29.96,23,6,30,0.07
2013-3-13,32,26,17,22,19,13,85,75,59,30.48,30.28,14,1,15,0.02
2013-3-14,48,37,26,37,30,20,90,74,60,30.34,30.07,9,1,15,0.00
2013-3-15,53,40,31,46,37,28,94,87,74,30.07,29.71,11,2,14,0.01
2013-3-16,36,32,27,34,27,21,93,82,72,30.22,29.79,19,7,23,0.00
2013-3-17,39,30,21,28,23,16,84,76,64,30.21,29.85,15,7,23,0.00
2013-3-18,33,28,21,32,23,14,96,81,67,30.02,29.72,24,7,33,0.09
2013-3-19,35,25,16,23,15,8,83,68,53,30.30,29.99,19,6,25,0.02
2013-3-20,27,21,14,17,10,5,80,64,49,30.37,30.18,21,10,30,0.00
2013-3-21,34,22,9,19,12,5,86,67,48,30.18,30.01,9,2,14,0.00
2013-3-22,37,28,18,26,20,14,86,70,50,30.10,30.02,6,1,10,0.00
2013-3-23,38,31,26,28,23,20,89,73,52,30.15,30.02,12,3,15,0.00
2013-3-24,32,29,27,28,26,24,94,89,73,30.05,29.91,19,8,23,0.00
2013-3-25,36,30,27,27,25,22,94,80,63,30.28,29.99,21,9,23,0.03
2013-3-26,39,30,22,26,22,18,85,72,55,30.37,30.28,13,3,16,0.00
2013-3-27,46,36,24,30,25,20,87,67,48,30.36,30.26,10,1,12,0.00
2013-3-28,54,42,31,37,32,26,86,67,49,30.32,30.21,14,3,19,0.00
2013-3-29,62,48,34,39,35,30,88,63,37,30.27,30.10,12,2,17,0.00
2013-3-30,57,49,43,51,44,36,94,82,59,30.10,29.85,9,2,17,0.19
2013-3-31,51,41,32,42,34,23,97,76,46,30.10,29.87,24,6,27,0.01
2013-4-1,38,30,23,23,20,16,80,66,50,30.32,30.10,17,6,21,0.00
2013-4-2,45,33,20,26,22,18,94,68,40,30.37,30.31,13,2,20,0.00
2013-4-3,50,37,28,25,22,20,76,56,36,30.42,30.26,14,1,17,0.00
2013-4-4,62,47,35,42,30,20,77,53,40,30.26,30.03,15,3,19,0.00
2013-4-5,59,46,30,37,32,27,89,60,34,30.19,29.81,17,4,22,0.00
2013-4-6,67,57,45,49,43,37,85,61,51,29.81,29.51,22,4,27,0.00
2013-4-7,66,49,33,47,40,31,96,75,48,29.93,29.64,12,3,18,0.00
2013-4-8,73,63,49,57,53,45,95,71,50,29.75,29.60,9,2,16,0.03
2013-4-9,63,50,42,57,48,41,96,95,79,29.88,29.65,19,7,24,0.46
2013-4-10,42,39,38,41,38,36,95,94,91,29.94,29.70,24,6,31,1.12
2013-4-11,41,38,36,39,36,33,97,93,84,29.74,29.59,17,2,19,0.23
2013-4-12,40,36,34,34,31,26,93,83,72,29.96,29.61,17,6,23,0.01
2013-4-13,49,42,30,38,32,25,85,69,56,30.01,29.82,14,2,20,0.00
2013-4-14,68,52,42,55,46,37,91,80,59,29.82,29.39,18,6,27,0.26
2013-4-15,50,42,36,44,34,28,85,74,62,30.06,29.62,16,2,21,0.04
2013-4-16,49,41,32,37,32,28,89,73,56,30.25,30.06,14,4,19,0.00
2013-4-17,47,43,40,46,39,36,97,88,70,30.20,29.54,19,6,30,1.89
2013-4-18,42,38,34,41,35,30,100,92,85,29.75,29.54,22,8,31,0.59
2013-4-19,42,36,30,32,27,25,92,73,55,30.08,29.69,28,11,37,0.00
2013-4-20,47,38,27,28,25,22,92,64,38,30.29,30.08,12,2,20,0.00
2013-4-21,66,53,41,46,38,28,77,58,33,30.25,30.04,24,4,32,0.02
2013-4-22,66,53,36,50,46,33,95,80,48,30.15,29.87,19,3,26,0.50
2013-4-23,41,36,32,33,29,24,91,79,62,30.15,30.03,20,9,27,0.02
2013-4-24,54,42,27,38,29,23,88,64,36,30.18,30.01,16,3,25,0.00
2013-4-25,62,48,33,38,33,28,86,59,35,30.28,30.11,12,2,23,0.00
2013-4-26,66,57,50,52,45,37,82,64,54,30.17,30.06,21,4,29,0.00
2013-4-27,67,57,45,51,47,43,94,71,50,30.20,29.96,10,1,13,0.00
2013-4-28,76,61,46,54,50,44,92,68,44,29.98,29.71,12,2,17,0.00
2013-4-29,80,67,54,63,56,50,88,69,49,29.74,29.47,14,2,24,0.00
2013-4-30,83,74,59,63,55,47,71,53,45,29.80,29.48,25,7,33,0.01
2013-5-1,59,49,39,49,41,35,86,75,66,30.32,29.80,27,12,30,0.00
2013-5-2,40,34,33,36,32,31,95,94,84,30.45,30.27,23,10,32,1.29
2013-5-3,34,33,32,32,32,31,96,94,90,30.37,29.97,18,9,21,0.45
2013-5-4,46,40,34,45,38,32,96,95,94,30.08,29.91,14,6,20,0.49
2013-5-5,60,52,42,56,49,41,96,91,83,30.11,30.04,14,4,16,0.00
2013-5-6,73,58,46,59,50,44,100,78,48,30.09,29.98,11,1,14,0.00
2013-5-7,78,64,50,56,50,46,91,63,33,30.04,29.92,6,0,12,0.00
2013-5-8,72,62,56,59,54,48,93,75,52,29.96,29.88,11,1,17,0.12
2013-5-9,70,60,54,61,56,51,96,89,67,29.90,29.79,17,3,22,1.12
2013-5-10,65,55,48,54,49,45,94,81,57,30.01,29.89,21,4,21,0.00
2013-5-11,56,52,44,48,33,22,80,50,30,30.19,29.93,29,10,33,0.00
2013-5-12,61,51,36,31,27,25,69,43,25,30.25,30.11,16,3,21,0.00
2013-5-13,75,65,46,52,39,25,61,40,26,30.12,29.78,19,3,27,0.00
2013-5-14,94,79,63,66,58,52,76,51,32,29.78,29.53,18,3,27,0.00
2013-5-15,81,72,58,53,46,38,66,40,23,29.86,29.67,13,2,19,0.00
2013-5-16,80,71,61,67,58,48,77,65,48,29.86,29.74,14,1,16,0.00
2013-5-17,80,72,63,65,62,60,90,72,53,29.88,29.77,9,1,16,0.00
2013-5-18,82,73,63,66,63,59,89,73,55,29.89,29.70,12,2,19,0.00
2013-5-19,86,73,61,70,63,59,95,73,43,29.73,29.47,20,4,40,1.47
2013-5-20,77,66,60,64,60,58,95,80,58,29.61,29.47,18,4,28,0.38
2013-5-21,70,63,59,60,54,49,92,72,54,29.63,29.51,10,2,18,0.00
2013-5-22,63,58,54,57,53,50,94,86,74,29.86,29.61,15,3,20,0.03
2013-5-23,69,60,52,54,49,44,94,71,43,30.24,29.86,16,5,23,0.00
2013-5-24,70,60,49,53,48,43,81,65,47,30.32,30.12,13,2,21,0.01
2013-5-25,60,54,52,53,50,47,93,87,62,30.22,30.07,19,6,28,0.64
2013-5-26,61,55,51,59,53,48,96,93,90,30.12,29.85,14,4,41,1.10
2013-5-27,74,65,57,65,60,56,97,87,72,29.96,29.61,23,2,44,0.72
2013-5-28,80,70,63,68,64,62,97,83,61,29.71,29.56,10,1,18,0.31
2013-5-29,80,69,64,72,64,59,96,85,72,29.74,29.61,20,2,28,1.95
2013-5-30,73,69,64,68,63,60,89,81,73,29.63,29.52,18,3,27,0.06
2013-5-31,76,69,62,66,62,54,95,80,63,29.65,29.57,20,3,23,0.00
2013-6-1,69,62,56,63,56,50,93,80,69,29.89,29.56,17,3,23,0.14
2013-6-2,66,57,52,51,48,45,84,71,51,30.04,29.89,16,5,23,0.00
2013-6-3,71,61,49,53,50,44,89,67,49,30.05,29.89,17,2,17,0.00
2013-6-4,66,61,56,62,56,52,94,84,71,30.03,29.92,15,3,26,0.25
2013-6-5,69,63,57,61,59,53,97,87,67,29.97,29.88,10,2,14,0.61
2013-6-6,69,61,54,58,54,52,94,79,59,29.95,29.87,16,2,19,0.00
2013-6-7,70,59,51,56,52,50,95,80,56,29.99,29.89,8,1,13,0.00
2013-6-8,73,66,55,61,58,51,90,75,58,29.90,29.72,12,2,21,0.21
2013-6-9,72,65,61,64,61,58,95,86,70,29.74,29.66,12,1,16,0.34
2013-6-10,79,66,58,66,62,57,98,86,62,29.86,29.72,7,0,9,0.01
2013-6-11,85,75,64,74,68,62,94,80,65,29.85,29.63,7,1,20,0.00
2013-6-12,88,76,65,76,69,58,93,80,63,29.81,29.57,22,5,30,0.09
2013-6-13,83,72,61,63,58,55,83,64,42,30.00,29.82,20,3,29,0.00
2013-6-14,74,69,65,66,61,57,95,77,62,30.00,29.79,14,2,34,1.27
2013-6-15,82,72,64,72,66,62,96,84,65,29.96,29.78,13,1,24,0.17
2013-6-16,87,75,66,70,61,52,95,67,30,29.92,29.85,10,0,11,0.00
2013-6-17,88,76,63,66,60,55,90,60,37,29.92,29.84,13,1,18,0.00
2013-6-18,84,73,61,65,59,54,86,62,42,29.95,29.89,7,0,13,0.00
2013-6-19,84,74,65,68,63,59,86,69,48,30.00,29.91,12,2,16,0.00
2013-6-20,87,79,68,70,66,62,81,66,54,29.96,29.83,18,4,23,0.00
2013-6-21,89,80,73,77,72,67,84,76,67,29.91,29.76,17,4,21,0.00
2013-6-22,91,82,72,76,71,63,79,70,59,29.95,29.76,14,2,20,0.00
2013-6-23,81,76,66,71,69,63,92,80,68,29.92,29.67,17,2,24,0.25
2013-6-24,76,72,67,72,68,64,95,89,75,29.91,29.75,19,1,44,1.44
2013-6-25,88,78,71,75,72,68,95,82,54,29.77,29.64,10,1,19,0.19
2013-6-26,90,81,74,78,71,65,90,75,49,29.78,29.59,13,1,22,0.01
2013-6-27,86,76,67,72,67,63,94,74,52,29.88,29.78,13,1,21,0.01
2013-6-28,84,77,69,65,60,54,82,57,36,29.83,29.72,25,8,31,0.00
2013-6-29,76,70,66,62,59,56,78,70,55,29.86,29.71,23,5,30,0.00
2013-6-30,78,68,59,59,54,46,89,63,35,30.04,29.86,16,3,22,0.00
2013-7-1,82,71,58,59,53,50,81,57,36,30.09,30.04,20,2,20,0.00
2013-7-2,84,71,57,63,57,46,90,64,29,30.09,29.96,10,1,21,0.05
2013-7-3,80,70,58,64,60,56,95,71,45,30.01,29.92,7,0,14,0.00
2013-7-4,84,74,62,64,61,58,90,65,45,29.98,29.88,12,1,15,0.00
2013-7-5,87,77,65,66,62,58,78,60,46,29.93,29.83,10,2,19,0.00
2013-7-6,90,79,69,70,65,61,75,63,45,29.89,29.79,10,2,18,0.00
2013-7-7,91,82,73,74,68,64,76,65,49,29.84,29.78,13,2,26,0.07
2013-7-8,89,81,77,76,72,68,89,74,62,29.90,29.83,7,0,11,0.00
2013-7-9,94,82,75,79,74,71,90,78,60,29.90,29.79,11,1,13,0.03
2013-7-10,83,76,66,73,61,54,87,63,38,30.00,29.83,16,2,17,0.00
2013-7-11,83,74,63,62,58,56,82,61,43,30.07,29.96,11,1,14,0.00
2013-7-12,86,75,66,65,61,58,78,63,46,30.02,29.93,13,2,19,0.00
2013-7-13,78,74,66,65,62,56,69,66,61,30.02,29.94,9,1,15,0.00
2013-7-14,86,78,66,66,64,61,85,63,50,30.11,30.02,15,2,20,0.00
2013-7-15,89,79,68,72,68,63,84,71,56,30.17,30.07,9,1,15,0.00
2013-7-16,92,83,73,74,72,70,89,70,52,30.19,30.12,9,0,12,0.00
2013-7-17,95,85,75,75,72,69,86,67,44,30.23,30.10,8,0,11,0.00
2013-7-18,94,85,75,74,71,68,86,64,44,30.11,29.86,10,2,17,0.00
2013-7-19,94,84,74,75,69,62,71,61,39,29.86,29.75,11,1,17,0.00
2013-7-20,90,77,61,66,61,55,92,62,31,29.91,29.80,6,0,10,0.00
2013-7-21,79,73,67,70,66,61,89,78,65,29.86,29.74,16,1,16,0.16
2013-7-22,94,78,66,75,69,63,95,77,48,29.81,29.64,20,2,29,0.54
2013-7-23,77,69,64,68,61,58,92,76,58,29.94,29.74,14,1,18,0.01
2013-7-24,80,70,57,62,59,55,93,70,50,30.03,29.94,7,0,11,0.00
2013-7-25,85,74,62,69,64,58,88,70,51,30.01,29.88,15,1,20,0.00
2013-7-26,77,70,62,68,60,53,94,71,47,30.00,29.88,17,5,24,0.03
2013-7-27,69,61,53,54,49,46,89,67,44,30.05,29.95,16,4,21,0.00
2013-7-28,76,64,52,55,51,47,86,64,43,30.03,29.95,14,2,16,0.00
2013-7-29,74,66,55,62,56,51,89,73,53,30.08,30.00,11,1,14,0.01
2013-7-30,69,66,63,66,64,59,96,92,78,30.04,29.99,7,0,14,0.17
2013-7-31,84,72,63,68,65,62,98,80,53,30.08,29.96,8,0,13,0.01
2013-8-1,89,75,61,66,63,57,95,70,35,30.03,29.84,5,0,9,0.00
2013-8-2,82,72,65,68,64,58,89,76,57,29.96,29.83,16,1,21,0.00
2013-8-3,79,70,60,61,58,52,90,67,42,30.14,29.96,10,0,11,0.00
2013-8-4,81,71,55,60,57,52,93,65,45,30.15,29.99,8,1,15,0.00
2013-8-5,84,74,66,73,67,60,92,80,64,29.99,29.71,8,1,16,0.00
2013-8-6,90,77,67,73,69,66,96,78,52,29.84,29.71,16,1,16,0.00
2013-8-7,80,73,67,68,65,62,96,77,59,29.95,29.73,13,2,18,0.00
2013-8-8,81,71,59,64,60,55,88,72,52,29.98,29.90,9,0,11,0.00
2013-8-9,81,73,62,68,62,54,88,71,43,30.08,29.95,11,1,15,0.00
2013-8-10,84,71,56,63,59,54,96,67,45,30.16,30.03,6,0,9,0.00
2013-8-11,86,75,65,68,63,59,86,68,51,30.07,29.92,12,1,20,0.07
2013-8-12,82,72,63,68,63,57,96,77,48,30.00,29.92,13,1,17,0.13
2013-8-13,78,67,58,61,57,52,93,71,48,30.13,30.00,9,1,12,0.00
2013-8-14,76,66,54,56,51,48,88,61,39,30.18,30.08,8,0,11,0.00
2013-8-15,72,65,60,57,54,52,80,69,54,30.11,30.05,11,1,18,0.00
2013-8-16,78,67,56,58,54,52,88,66,43,30.16,30.09,9,1,13,0.00
2013-8-17,83,69,54,59,56,51,92,64,36,30.18,30.08,8,0,13,0.00
2013-8-18,83,71,59,62,58,55,87,66,44,30.13,30.01,9,1,14,0.00
2013-8-19,85,74,63,67,63,58,87,71,52,30.04,29.92,11,1,18,0.00
2013-8-20,90,80,71,71,67,62,79,66,50,29.94,29.85,16,3,24,0.00
2013-8-21,93,82,72,70,68,66,83,65,45,29.93,29.87,11,2,19,0.00
2013-8-22,84,77,72,71,68,67,86,75,62,30.02,29.91,8,1,10,0.00
2013-8-23,88,77,67,74,70,66,94,79,60,30.05,29.96,16,3,16,0.00
2013-8-24,91,81,71,74,70,68,89,71,51,30.07,29.97,15,2,18,0.00
2013-8-25,95,84,74,72,69,66,77,63,44,30.09,29.98,13,3,18,0.00
2013-8-26,98,86,73,74,71,68,88,64,40,30.03,29.87,13,2,17,0.00
2013-8-27,98,86,78,73,71,69,75,61,44,29.89,29.78,12,2,17,0.00
2013-8-28,98,85,73,71,69,66,79,60,38,29.92,29.84,8,0,12,0.00
2013-8-29,95,84,72,74,71,67,85,67,48,29.96,29.83,13,1,15,0.00
2013-8-30,102,86,73,78,72,67,89,67,33,29.84,29.70,7,1,14,0.00
2013-8-31,92,79,68,72,68,64,93,72,42,29.78,29.70,9,1,12,0.00
2013-9-1,82,75,62,71,64,58,93,71,46,29.91,29.65,17,4,23,0.10
2013-9-2,78,66,56,59,56,52,93,72,41,30.01,29.91,12,2,14,0.00
2013-9-3,83,67,50,60,55,48,96,70,42,30.08,29.98,4,0,8,0.00
2013-9-4,91,76,62,66,61,55,82,62,38,30.10,30.00,7,0,11,0.00
2013-9-5,90,79,69,68,66,64,89,68,43,30.13,30.04,6,0,8,0.00
2013-9-6,91,79,67,66,63,60,86,61,38,30.06,29.87,11,1,16,0.00
2013-9-7,92,81,73,73,68,62,86,66,51,29.88,29.77,11,1,13,0.00
2013-9-8,87,78,70,74,71,68,94,80,64,29.87,29.75,13,3,16,0.00
2013-9-9,99,85,72,71,67,64,94,60,32,29.78,29.70,13,2,24,0.00
2013-9-10,96,85,75,70,66,62,77,54,38,29.92,29.79,14,2,25,0.00
2013-9-11,86,76,69,71,68,62,93,75,55,30.02,29.91,10,0,19,0.09
2013-9-12,78,69,58,66,54,46,88,61,33,30.14,30.00,17,3,22,0.00
2013-9-13,73,62,49,50,48,45,88,62,40,30.21,30.07,7,1,13,0.00
2013-9-14,76,65,50,49,45,42,77,51,34,30.09,29.86,11,1,19,0.00
2013-9-15,69,65,58,63,56,48,87,73,48,30.19,29.80,16,3,19,0.14
2013-9-16,65,59,53,56,53,51,93,82,65,30.32,30.19,10,1,14,0.00
2013-9-17,65,58,54,64,56,51,97,92,81,30.22,29.95,11,2,15,0.65
2013-9-18,90,76,65,72,68,63,95,79,53,29.95,29.68,16,2,22,0.02
2013-9-19,84,75,64,72,68,63,97,81,62,29.81,29.63,20,2,22,1.38
2013-9-20,67,60,53,63,52,46,95,76,58,29.95,29.81,16,5,24,0.01
2013-9-21,74,58,46,51,47,43,92,67,37,30.01,29.87,6,0,10,0.00
2013-9-22,78,64,52,57,52,46,83,65,47,29.94,29.83,14,1,16,0.00
2013-9-23,76,64,53,56,52,49,86,66,45,29.92,29.78,24,3,24,0.00
2013-9-24,74,63,55,60,54,50,84,74,58,29.86,29.80,11,2,14,0.00
2013-9-25,77,65,52,61,56,49,91,74,55,29.90,29.78,9,1,15,0.00
2013-9-26,83,71,59,66,61,55,92,73,52,29.89,29.80,15,3,23,0.00
2013-9-27,85,75,66,66,63,61,86,68,45,29.91,29.80,17,3,22,0.00
2013-9-28,70,61,52,65,56,48,93,84,71,30.00,29.71,21,3,24,0.13
2013-9-29,74,60,46,52,48,43,94,66,38,30.05,29.89,7,0,16,0.00
2013-9-30,77,66,53,56,52,49,86,61,42,29.90,29.68,15,2,19,0.00
2013-10-1,83,71,60,62,57,46,85,63,41,29.91,29.74,11,0,14,0.00
2013-10-2,84,72,60,66,56,46,82,59,44,29.97,29.80,11,1,18,0.00
2013-10-3,77,72,66,68,65,62,96,80,62,29.80,29.70,9,1,15,0.22
2013-10-4,77,69,62,71,65,60,95,89,71,29.84,29.67,12,1,20,0.63
2013-10-5,73,55,47,64,43,36,81,65,50,29.88,29.74,13,2,21,0.00
2013-10-6,50,47,43,47,42,36,96,82,65,29.90,29.71,14,2,22,0.17
2013-10-7,74,57,44,49,45,40,91,66,36,30.03,29.90,8,1,13,0.00
2013-10-8,76,64,51,50,48,45,79,57,38,30.03,29.92,14,2,20,0.00
2013-10-9,75,64,53,54,50,49,85,64,41,30.06,29.97,11,1,17,0.00
2013-10-10,77,64,50,57,50,45,85,64,40,30.02,29.84,14,1,18,0.00
2013-10-11,72,65,57,64,58,52,89,79,70,29.86,29.67,17,2,21,0.00
2013-10-12,66,58,49,56,42,37,81,57,35,30.22,29.78,15,2,21,0.00
2013-10-13,65,58,37,42,38,32,85,48,35,30.42,30.22,6,0,7,0.00
2013-10-14,62,53,44,48,39,33,73,60,49,30.33,29.78,18,3,25,0.03
2013-10-15,60,51,47,57,46,42,94,82,65,29.92,29.72,19,4,26,0.41
2013-10-16,50,46,41,44,42,38,92,84,73,30.00,29.91,13,3,17,0.00
2013-10-17,62,50,40,44,40,36,91,72,39,29.95,29.81,19,2,25,0.01
2013-10-18,50,44,37,39,35,31,92,71,49,30.05,29.94,18,3,24,0.00
2013-10-19,58,46,36,38,35,32,87,65,43,29.95,29.77,14,1,19,0.00
2013-10-20,63,49,41,46,39,32,79,68,47,29.93,29.70,19,2,24,0.00
2013-10-21,50,42,35,36,31,24,84,66,43,30.06,29.93,17,3,22,0.00
2013-10-22,43,40,37,39,35,28,93,84,67,30.08,29.86,11,3,16,0.10
2013-10-23,43,37,32,36,32,28,92,82,61,30.16,30.06,13,2,16,0.03
2013-10-24,46,38,31,32,29,26,88,73,55,30.37,30.16,13,4,20,0.00
2013-10-25,56,43,29,34,30,26,90,64,41,30.41,30.02,14,2,23,0.00
2013-10-26,52,45,34,36,31,29,83,60,42,30.14,29.94,17,4,26,0.00
2013-10-27,63,46,30,37,33,26,86,62,37,30.12,29.84,11,1,16,0.00
2013-10-28,54,44,36,40,36,32,85,73,59,30.28,29.97,14,4,18,0.00
2013-10-29,57,47,39,49,41,34,92,80,73,30.27,29.99,12,3,20,0.00
2013-10-30,63,56,52,59,54,48,97,94,84,29.99,29.62,13,3,20,0.74
2013-10-31,54,45,41,52,42,39,100,90,78,29.64,29.43,12,2,17,0.01
2013-11-1,56,47,40,42,40,37,92,76,57,29.86,29.50,16,3,24,0.00
2013-11-2,53,46,39,40,37,34,88,73,48,30.12,29.86,15,4,20,0.00
2013-11-3,56,47,37,38,35,32,85,65,43,30.14,29.89,27,4,33,0.00
2013-11-4,56,50,46,48,43,37,91,79,64,30.13,29.87,13,2,18,0.08
2013-11-5,57,48,40,56,46,39,100,90,82,30.16,29.75,14,3,23,0.73
2013-11-6,44,38,33,39,32,27,94,79,53,30.27,29.83,20,6,27,0.00
2013-11-7,46,37,30,36,30,25,92,77,54,30.33,30.24,11,1,19,0.00
2013-11-8,60,46,31,39,32,24,76,59,42,30.29,29.76,21,2,29,0.00
2013-11-9,56,48,38,41,37,30,72,64,49,30.29,29.82,14,4,22,0.00
2013-11-10,49,40,28,34,29,25,87,66,48,30.43,30.15,11,2,15,0.00
2013-11-11,49,33,17,38,26,12,88,75,55,30.72,30.08,19,6,23,0.00
2013-11-12,30,21,12,16,12,8,84,70,46,30.90,30.61,11,3,14,0.00
2013-11-13,50,36,22,27,19,12,66,51,39,30.62,30.04,22,5,28,0.00
2013-11-14,52,44,37,32,27,21,63,52,43,30.04,29.87,18,2,18,0.00
2013-11-15,57,44,33,39,34,28,83,67,48,29.91,29.69,11,1,14,0.00
2013-11-16,67,56,44,58,49,39,92,78,60,29.69,29.27,18,3,24,0.01
2013-11-17,54,47,40,50,42,36,94,82,64,29.95,29.24,17,2,27,0.30
2013-11-18,46,38,33,36,32,29,88,79,63,30.27,29.95,15,2,22,0.00
2013-11-19,54,43,33,35,32,29,87,66,44,30.27,29.99,17,4,24,0.00
2013-11-20,46,41,36,38,34,28,94,78,52,30.00,29.87,20,3,22,0.04
2013-11-21,38,31,24,37,29,22,96,93,89,30.47,30.00,18,6,20,0.01
2013-11-22,26,21,16,22,16,10,92,81,70,30.68,30.47,20,5,23,0.00
2013-11-23,19,13,7,13,6,3,88,75,63,30.89,30.63,15,6,25,0.00
2013-11-24,28,17,5,13,8,2,89,69,45,30.82,30.29,15,3,22,0.00
2013-11-25,37,30,23,29,23,13,89,75,57,30.30,30.11,13,2,21,0.02
2013-11-26,30,24,17,25,16,9,90,71,52,30.39,30.15,25,7,28,0.00
2013-11-27,27,19,9,16,10,4,84,69,53,30.44,30.10,11,2,16,0.00
2013-11-28,32,25,16,20,16,11,80,71,60,30.54,30.07,17,4,21,0.00
2013-11-29,40,27,12,26,19,9,88,74,57,30.56,30.24,11,2,13,0.00
2013-11-30,52,39,32,36,30,26,84,72,54,30.23,30.05,6,1,9,0.00
2013-12-1,38,33,25,32,28,22,90,82,72,30.17,29.91,6,0,9,0.00
2013-12-2,48,38,33,41,34,29,90,83,72,29.91,29.53,11,2,21,0.00
2013-12-3,41,38,35,39,37,33,100,94,88,29.66,29.52,4,0,11,0.01
2013-12-4,38,32,18,37,30,13,97,94,81,29.94,29.52,18,3,28,0.03
2013-12-5,18,13,7,13,6,0,81,74,67,30.46,29.92,19,8,28,0.00
2013-12-6,12,7,1,3,-1,-5,76,71,63,30.75,30.45,17,6,18,0.00
2013-12-7,12,6,-3,4,-2,-8,79,69,58,30.85,30.59,10,2,12,0.00
2013-12-8,18,15,11,15,10,2,91,82,67,30.59,30.05,14,3,18,0.00
2013-12-9,15,5,0,12,0,-5,89,77,64,30.35,30.12,15,2,20,0.00
2013-12-10,22,17,5,15,9,-2,80,69,59,30.29,30.05,28,4,32,0.01
2013-12-11,21,7,0,18,1,-5,90,75,64,30.68,30.25,18,4,25,0.00
2013-12-12,30,18,4,19,10,-2,82,70,60,30.55,30.16,12,1,18,0.02
2013-12-13,31,24,19,25,19,14,87,83,76,30.16,29.97,12,2,16,0.02
2013-12-14,24,19,12,20,15,7,91,85,78,30.20,30.08,14,6,22,0.00
2013-12-15,16,14,10,10,8,5,85,79,74,30.20,30.08,9,1,12,0.00
2013-12-16,28,20,11,24,16,8,91,87,82,30.15,30.02,9,1,12,0.00
2013-12-17,36,29,22,28,21,15,90,74,51,30.23,30.11,23,3,31,0.00
2013-12-18,47,34,22,34,25,15,85,71,59,30.19,29.74,15,1,20,0.00
2013-12-19,36,32,27,31,28,25,93,87,80,29.87,29.75,16,5,19,0.00
2013-12-20,27,24,20,25,22,18,93,92,90,29.93,29.82,12,4,17,0.00
2013-12-21,25,22,19,23,19,16,93,90,87,29.94,29.79,14,3,17,0.00
2013-12-22,25,18,6,23,15,1,94,89,82,30.37,29.79,18,7,22,0.00
2013-12-23,8,2,-5,1,-5,-13,84,72,61,30.64,30.37,16,4,22,0.00
2013-12-24,16,3,-10,14,-4,-16,89,73,60,30.64,30.27,13,2,19,0.00
2013-12-25,34,24,16,29,20,14,93,85,75,30.29,30.18,18,2,21,0.01
2013-12-26,38,30,20,28,23,15,92,77,64,30.26,30.11,9,0,13,0.02
2013-12-27,49,35,21,32,26,18,91,72,49,30.26,30.08,11,1,17,0.00
2013-12-28,53,41,24,33,30,20,87,66,45,30.08,29.76,22,4,33,0.00
2013-12-29,24,9,0,20,0,-10,87,68,45,30.39,29.96,28,10,32,0.00
2013-12-30,15,7,-1,12,1,-11,92,77,58,30.38,30.19,8,1,11,0.00
2013-12-31,12,8,3,7,4,0,88,83,78,30.37,30.23,13,3,16,0.00
2014-1-1,10,7,5,6,2,0,92,82,79,30.43,30.26,15,7,19,0.00
2014-1-2,7,2,-6,2,-3,-10,88,77,70,30.56,30.40,12,5,17,0.00